createdAt,value
2023-01-17T00:00:33.811Z,957.68
2023-01-17T00:01:33.863Z,957.69
2023-01-17T00:02:33.865Z,957.86
2023-01-17T00:03:33.787Z,957.80
2023-01-17T00:04:33.741Z,957.79
2023-01-17T00:05:33.772Z,957.88
2023-01-17T00:06:33.743Z,957.86
2023-01-17T00:07:33.743Z,957.94
2023-01-17T00:08:33.793Z,957.90
2023-01-17T00:09:33.725Z,957.91
2023-01-17T00:10:33.682Z,957.85
2023-01-17T00:11:33.704Z,957.97
2023-01-17T00:12:33.655Z,957.98
2023-01-17T00:13:33.644Z,957.92
2023-01-17T00:14:33.656Z,957.97
2023-01-17T00:15:33.671Z,957.93
2023-01-17T00:16:33.658Z,958.06
2023-01-17T00:17:34.269Z,958.01
2023-01-17T00:18:33.576Z,958.00
2023-01-17T00:19:33.570Z,958.06
2023-01-17T00:20:33.592Z,958.07
2023-01-17T00:21:34.262Z,958.03
2023-01-17T00:22:33.587Z,958.08
2023-01-17T00:23:33.575Z,958.15
2023-01-17T00:24:33.561Z,958.18
2023-01-17T00:25:33.528Z,958.13
2023-01-17T00:26:33.496Z,958.19
2023-01-17T00:27:33.553Z,958.20
2023-01-17T00:28:33.608Z,958.22
2023-01-17T00:29:33.483Z,958.21
2023-01-17T00:30:33.513Z,958.25
2023-01-17T00:31:33.495Z,958.29
2023-01-17T00:32:33.470Z,958.34
2023-01-17T00:33:34.470Z,958.33
2023-01-17T00:34:33.413Z,958.37
2023-01-17T00:35:33.400Z,958.39
2023-01-17T00:36:33.393Z,958.50
2023-01-17T00:37:33.419Z,958.51
2023-01-17T00:38:33.401Z,958.35
2023-01-17T00:39:33.501Z,958.42
2023-01-17T00:40:33.423Z,958.42
2023-01-17T00:41:33.433Z,958.47
2023-01-17T00:42:33.423Z,958.44
2023-01-17T00:43:33.370Z,958.47
2023-01-17T00:44:33.408Z,958.51
2023-01-17T00:45:33.364Z,958.56
2023-01-17T00:46:33.409Z,958.57
2023-01-17T00:47:33.303Z,958.51
2023-01-17T00:48:33.311Z,958.56
2023-01-17T00:49:33.312Z,958.57
2023-01-17T00:50:33.303Z,958.61
2023-01-17T00:51:33.307Z,958.63
2023-01-17T00:52:33.309Z,958.59
2023-01-17T00:53:33.308Z,958.67
2023-01-17T00:54:33.242Z,958.63
2023-01-17T00:55:33.263Z,958.60
2023-01-17T00:56:33.259Z,958.59
2023-01-17T00:57:33.213Z,958.69
2023-01-17T00:58:33.235Z,958.60
2023-01-17T00:59:33.249Z,958.73
2023-01-17T01:00:33.324Z,958.66
2023-01-17T01:01:33.239Z,958.74
2023-01-17T01:02:33.226Z,958.78
2023-01-17T01:03:33.174Z,958.76
2023-01-17T01:04:33.207Z,958.78
2023-01-17T01:05:33.138Z,958.77
2023-01-17T01:06:33.229Z,958.80
2023-01-17T01:07:33.090Z,958.81
2023-01-17T01:08:33.060Z,958.74
2023-01-17T01:09:33.155Z,958.73
2023-01-17T01:10:33.071Z,958.81
2023-01-17T01:11:33.101Z,958.84
2023-01-17T01:12:33.072Z,958.78
2023-01-17T01:13:33.075Z,958.84
2023-01-17T01:14:33.044Z,958.78
2023-01-17T01:15:33.136Z,958.85
2023-01-17T01:16:33.077Z,958.94
2023-01-17T01:17:33.062Z,958.85
2023-01-17T01:18:33.012Z,958.92
2023-01-17T01:19:33.008Z,958.90
2023-01-17T01:20:32.957Z,958.89
2023-01-17T01:21:32.964Z,959.00
2023-01-17T01:22:32.985Z,958.94
2023-01-17T01:23:32.949Z,958.93
2023-01-17T01:24:32.932Z,958.95
2023-01-17T01:25:32.924Z,958.92
2023-01-17T01:26:32.931Z,958.96
2023-01-17T01:27:32.954Z,959.01
2023-01-17T01:28:32.908Z,959.08
2023-01-17T01:29:32.897Z,959.10
2023-01-17T01:30:32.927Z,959.07
2023-01-17T01:31:32.879Z,959.11
2023-01-17T01:32:32.843Z,959.15
2023-01-17T01:33:32.863Z,959.26
2023-01-17T01:34:32.871Z,959.29
2023-01-17T01:35:32.834Z,959.18
2023-01-17T01:36:32.844Z,959.29
2023-01-17T01:37:32.794Z,959.32
2023-01-17T01:38:32.832Z,959.34
2023-01-17T01:39:32.789Z,959.30
2023-01-17T01:40:33.360Z,959.28
2023-01-17T01:41:32.762Z,959.45
2023-01-17T01:42:32.753Z,959.38
2023-01-17T01:43:32.811Z,959.48
2023-01-17T01:44:32.725Z,959.50
2023-01-17T01:45:32.808Z,959.43
2023-01-17T01:46:32.737Z,959.51
2023-01-17T01:47:33.407Z,959.48
2023-01-17T01:48:32.694Z,959.51
2023-01-17T01:49:32.677Z,959.52
2023-01-17T01:50:32.677Z,959.50
2023-01-17T01:51:32.631Z,959.52
2023-01-17T01:52:32.659Z,959.61
2023-01-17T01:53:32.618Z,959.57
2023-01-17T01:54:32.614Z,959.61
2023-01-17T01:55:32.635Z,959.62
2023-01-17T01:56:32.616Z,959.61
2023-01-17T01:57:32.581Z,959.61
2023-01-17T01:58:32.580Z,959.60
2023-01-17T01:59:32.562Z,959.60
2023-01-17T02:00:32.582Z,959.64
2023-01-17T02:01:32.692Z,959.62
2023-01-17T02:02:32.567Z,959.72
2023-01-17T02:03:32.589Z,959.52
2023-01-17T02:04:32.540Z,959.77
2023-01-17T02:05:32.517Z,959.73
2023-01-17T02:06:32.490Z,959.71
2023-01-17T02:07:32.454Z,959.68
2023-01-17T02:08:32.510Z,959.69
2023-01-17T02:09:32.468Z,959.77
2023-01-17T02:10:32.455Z,959.80
2023-01-17T02:11:32.464Z,959.74
2023-01-17T02:12:32.461Z,959.74
2023-01-17T02:13:32.434Z,959.73
2023-01-17T02:14:32.395Z,959.76
2023-01-17T02:15:32.389Z,959.71
2023-01-17T02:16:32.426Z,959.80
2023-01-17T02:17:32.405Z,959.73
2023-01-17T02:18:33.239Z,959.77
2023-01-17T02:19:32.386Z,959.77
2023-01-17T02:20:32.392Z,959.78
2023-01-17T02:21:32.336Z,959.87
2023-01-17T02:22:32.413Z,959.85
2023-01-17T02:23:32.331Z,959.77
2023-01-17T02:24:32.262Z,959.83
2023-01-17T02:25:32.283Z,959.77
2023-01-17T02:26:32.282Z,959.81
2023-01-17T02:27:32.295Z,959.85
2023-01-17T02:28:32.244Z,959.84
2023-01-17T02:29:32.261Z,959.84
2023-01-17T02:30:32.250Z,959.98
2023-01-17T02:31:32.260Z,959.91
2023-01-17T02:32:32.230Z,959.95
2023-01-17T02:33:32.244Z,959.89
2023-01-17T02:34:32.203Z,959.99
2023-01-17T02:35:32.171Z,960.01
2023-01-17T02:36:32.163Z,960.08
2023-01-17T02:37:32.140Z,959.99
2023-01-17T02:38:32.200Z,959.99
2023-01-17T02:39:32.167Z,960.05
2023-01-17T02:40:32.127Z,959.98
2023-01-17T02:41:32.876Z,959.98
2023-01-17T02:42:32.143Z,959.95
2023-01-17T02:43:32.188Z,960.01
2023-01-17T02:44:32.121Z,960.10
2023-01-17T02:45:32.105Z,959.97
2023-01-17T02:46:32.111Z,960.06
2023-01-17T02:47:32.078Z,960.02
2023-01-17T02:48:32.084Z,960.09
2023-01-17T02:49:32.075Z,960.20
2023-01-17T02:50:32.060Z,960.08
2023-01-17T02:51:32.034Z,960.10
2023-01-17T02:52:32.013Z,960.07
2023-01-17T02:53:31.983Z,960.10
2023-01-17T02:54:31.996Z,959.99
2023-01-17T02:55:31.977Z,960.14
2023-01-17T02:56:32.699Z,960.19
2023-01-17T02:57:31.930Z,960.18
2023-01-17T02:58:31.943Z,960.15
2023-01-17T02:59:32.848Z,960.11
2023-01-17T03:00:31.890Z,960.40
2023-01-17T03:01:32.097Z,960.27
2023-01-17T03:02:32.026Z,960.19
2023-01-17T03:03:31.863Z,960.26
2023-01-17T03:04:31.890Z,960.26
2023-01-17T03:05:31.860Z,960.39
2023-01-17T03:06:31.842Z,960.29
2023-01-17T03:07:31.870Z,960.23
2023-01-17T03:08:31.846Z,960.21
2023-01-17T03:09:31.830Z,960.24
2023-01-17T03:10:31.794Z,960.32
2023-01-17T03:11:31.822Z,960.33
2023-01-17T03:12:31.779Z,960.33
2023-01-17T03:13:31.809Z,960.35
2023-01-17T03:14:31.797Z,960.44
2023-01-17T03:15:31.754Z,960.41
2023-01-17T03:16:31.787Z,960.38
2023-01-17T03:17:31.783Z,960.39
2023-01-17T03:18:31.769Z,960.42
2023-01-17T03:19:31.736Z,960.39
2023-01-17T03:20:31.725Z,960.59
2023-01-17T03:21:31.722Z,960.51
2023-01-17T03:22:31.645Z,960.43
2023-01-17T03:23:31.650Z,960.47
2023-01-17T03:24:31.688Z,960.47
2023-01-17T03:25:31.637Z,960.53
2023-01-17T03:26:31.680Z,960.51
2023-01-17T03:27:31.644Z,960.52
2023-01-17T03:28:31.646Z,960.57
2023-01-17T03:29:31.677Z,960.64
2023-01-17T03:30:31.631Z,960.59
2023-01-17T03:31:31.553Z,960.61
2023-01-17T03:32:31.553Z,960.62
2023-01-17T03:33:31.575Z,960.65
2023-01-17T03:34:31.615Z,960.67
2023-01-17T03:35:31.553Z,960.66
2023-01-17T03:36:31.532Z,960.76
2023-01-17T03:37:31.584Z,960.73
2023-01-17T03:38:31.521Z,960.73
2023-01-17T03:39:31.503Z,960.75
2023-01-17T03:40:31.485Z,960.82
2023-01-17T03:41:31.530Z,960.73
2023-01-17T03:42:31.575Z,960.80
2023-01-17T03:43:31.482Z,960.83
2023-01-17T03:44:31.423Z,960.75
2023-01-17T03:45:31.476Z,960.73
2023-01-17T03:46:31.405Z,960.81
2023-01-17T03:47:31.412Z,960.88
2023-01-17T03:48:31.457Z,960.94
2023-01-17T03:49:31.397Z,960.90
2023-01-17T03:50:31.442Z,960.93
2023-01-17T03:51:31.400Z,960.92
2023-01-17T03:52:31.360Z,960.97
2023-01-17T03:53:31.394Z,961.04
2023-01-17T03:54:31.424Z,960.95
2023-01-17T03:55:31.320Z,960.97
2023-01-17T03:56:31.352Z,961.00
2023-01-17T03:57:31.301Z,960.99
2023-01-17T03:58:31.295Z,961.09
2023-01-17T03:59:31.292Z,961.16
2023-01-17T04:00:31.371Z,961.09
2023-01-17T04:01:31.396Z,961.13
2023-01-17T04:02:31.293Z,961.18
2023-01-17T04:03:31.209Z,961.18
2023-01-17T04:04:31.262Z,961.29
2023-01-17T04:05:31.208Z,961.12
2023-01-17T04:06:31.238Z,961.24
2023-01-17T04:07:31.213Z,961.19
2023-01-17T04:08:31.213Z,961.24
2023-01-17T04:09:31.144Z,961.32
2023-01-17T04:10:31.196Z,961.34
2023-01-17T04:11:31.172Z,961.35
2023-01-17T04:12:31.157Z,961.31
2023-01-17T04:13:31.150Z,961.38
2023-01-17T04:14:31.136Z,961.30
2023-01-17T04:15:31.101Z,961.36
2023-01-17T04:16:31.159Z,961.26
2023-01-17T04:17:31.092Z,961.34
2023-01-17T04:18:31.073Z,961.37
2023-01-17T04:19:31.104Z,961.38
2023-01-17T04:20:31.074Z,961.46
2023-01-17T04:21:31.099Z,961.42
2023-01-17T04:22:31.045Z,961.44
2023-01-17T04:23:31.075Z,961.45
2023-01-17T04:24:31.027Z,961.44
2023-01-17T04:25:37.757Z,961.51
2023-01-17T04:26:31.045Z,961.46
2023-01-17T04:27:30.974Z,961.51
2023-01-17T04:28:30.961Z,961.51
2023-01-17T04:29:30.963Z,961.50
2023-01-17T04:30:31.014Z,961.45
2023-01-17T04:31:31.022Z,961.52
2023-01-17T04:32:30.997Z,961.59
2023-01-17T04:33:30.964Z,961.49
2023-01-17T04:34:30.993Z,961.60
2023-01-17T04:35:30.900Z,961.50
2023-01-17T04:36:30.910Z,961.38
2023-01-17T04:37:30.848Z,961.61
2023-01-17T04:38:30.920Z,961.49
2023-01-17T04:39:31.028Z,961.56
2023-01-17T04:40:30.975Z,961.49
2023-01-17T04:41:30.913Z,961.55
2023-01-17T04:42:30.863Z,961.56
2023-01-17T04:43:30.868Z,961.57
2023-01-17T04:44:30.893Z,961.61
2023-01-17T04:45:30.918Z,961.57
2023-01-17T04:46:30.884Z,961.58
2023-01-17T04:47:30.783Z,961.68
2023-01-17T04:48:30.874Z,961.67
2023-01-17T04:49:30.796Z,961.70
2023-01-17T04:50:30.817Z,961.66
2023-01-17T04:51:30.788Z,961.76
2023-01-17T04:52:30.719Z,961.77
2023-01-17T04:53:30.755Z,961.77
2023-01-17T04:54:30.712Z,961.78
2023-01-17T04:55:30.909Z,961.82
2023-01-17T04:56:30.743Z,961.75
2023-01-17T04:57:30.746Z,961.80
2023-01-17T04:58:30.659Z,961.91
2023-01-17T04:59:30.676Z,961.89
2023-01-17T05:00:30.736Z,961.83
2023-01-17T05:01:30.763Z,961.96
2023-01-17T05:02:30.698Z,961.91
2023-01-17T05:03:30.641Z,961.97
2023-01-17T05:04:30.698Z,961.93
2023-01-17T05:05:30.650Z,961.94
2023-01-17T05:06:30.638Z,962.07
2023-01-17T05:07:30.587Z,961.93
2023-01-17T05:08:30.591Z,961.91
2023-01-17T05:09:30.608Z,962.02
2023-01-17T05:10:30.641Z,962.02
2023-01-17T05:11:30.652Z,962.03
2023-01-17T05:12:30.659Z,961.98
2023-01-17T05:13:30.550Z,962.00
2023-01-17T05:14:30.593Z,961.98
2023-01-17T05:15:30.526Z,961.91
2023-01-17T05:16:30.545Z,962.05
2023-01-17T05:17:30.485Z,962.16
2023-01-17T05:18:30.594Z,962.14
2023-01-17T05:19:31.353Z,962.12
2023-01-17T05:20:30.544Z,962.18
2023-01-17T05:21:30.465Z,962.14
2023-01-17T05:22:30.592Z,962.19
2023-01-17T05:23:30.481Z,962.18
2023-01-17T05:24:30.462Z,962.25
2023-01-17T05:25:30.406Z,962.19
2023-01-17T05:26:30.448Z,962.33
2023-01-17T05:27:30.428Z,962.33
2023-01-17T05:28:30.552Z,962.36
2023-01-17T05:29:30.544Z,962.40
2023-01-17T05:30:30.344Z,962.34
2023-01-17T05:31:30.379Z,962.47
2023-01-17T05:32:30.456Z,962.53
2023-01-17T05:33:30.397Z,962.51
2023-01-17T05:34:30.369Z,962.52
2023-01-17T05:35:30.294Z,962.54
2023-01-17T05:36:30.331Z,962.69
2023-01-17T05:37:30.340Z,962.58
2023-01-17T05:38:30.244Z,962.56
2023-01-17T05:39:30.268Z,962.58
2023-01-17T05:40:30.306Z,962.62
2023-01-17T05:41:30.297Z,962.68
2023-01-17T05:42:30.241Z,962.72
2023-01-17T05:43:30.253Z,962.59
2023-01-17T05:44:30.282Z,962.64
2023-01-17T05:45:30.176Z,962.77
2023-01-17T05:46:30.207Z,962.61
2023-01-17T05:47:30.145Z,962.78
2023-01-17T05:48:30.158Z,962.74
2023-01-17T05:49:30.173Z,962.67
2023-01-17T05:50:30.212Z,962.77
2023-01-17T05:51:30.146Z,962.61
2023-01-17T05:52:30.147Z,962.74
2023-01-17T05:53:30.223Z,962.85
2023-01-17T05:54:30.215Z,962.90
2023-01-17T05:55:30.182Z,962.94
2023-01-17T05:56:30.098Z,962.95
2023-01-17T05:57:30.131Z,962.95
2023-01-17T05:58:30.067Z,963.06
2023-01-17T05:59:36.969Z,963.16
2023-01-17T06:00:31.093Z,963.13
2023-01-17T06:01:30.139Z,963.11
2023-01-17T06:02:30.123Z,963.16
2023-01-17T06:03:30.067Z,963.17
2023-01-17T06:04:30.070Z,963.28
2023-01-17T06:05:30.104Z,963.31
2023-01-17T06:06:30.134Z,963.28
2023-01-17T06:07:29.963Z,963.31
2023-01-17T06:08:30.006Z,963.36
2023-01-17T06:09:30.061Z,963.35
2023-01-17T06:10:29.935Z,963.42
2023-01-17T06:11:29.960Z,963.34
2023-01-17T06:12:29.890Z,963.43
2023-01-17T06:13:29.914Z,963.45
2023-01-17T06:14:29.920Z,963.40
2023-01-17T06:15:29.917Z,963.46
2023-01-17T06:16:29.883Z,963.45
2023-01-17T06:17:30.042Z,963.48
2023-01-17T06:18:29.927Z,963.44
2023-01-17T06:19:30.040Z,963.54
2023-01-17T06:20:29.929Z,963.52
2023-01-17T06:21:29.908Z,963.49
2023-01-17T06:22:29.914Z,963.51
2023-01-17T06:23:29.909Z,963.53
2023-01-17T06:24:29.950Z,963.45
2023-01-17T06:25:29.924Z,963.57
2023-01-17T06:26:29.934Z,963.47
2023-01-17T06:27:29.952Z,963.56
2023-01-17T06:28:29.856Z,963.57
2023-01-17T06:29:29.841Z,963.62
2023-01-17T06:30:29.797Z,963.55
2023-01-17T06:31:29.815Z,963.52
2023-01-17T06:32:29.746Z,963.52
2023-01-17T06:33:29.766Z,963.50
2023-01-17T06:34:29.713Z,963.52
2023-01-17T06:35:29.688Z,963.58
2023-01-17T06:36:29.720Z,963.56
2023-01-17T06:37:29.667Z,963.62
2023-01-17T06:38:29.739Z,963.57
2023-01-17T06:39:29.837Z,963.57
2023-01-17T06:40:29.615Z,963.65
2023-01-17T06:41:29.647Z,963.60
2023-01-17T06:42:29.666Z,963.59
2023-01-17T06:43:29.645Z,963.66
2023-01-17T06:44:29.644Z,963.62
2023-01-17T06:45:29.710Z,963.67
2023-01-17T06:46:29.746Z,963.70
2023-01-17T06:47:29.581Z,963.72
2023-01-17T06:48:29.551Z,963.68
2023-01-17T06:49:29.570Z,963.69
2023-01-17T06:50:29.554Z,963.73
2023-01-17T06:51:29.541Z,963.77
2023-01-17T06:52:29.531Z,963.72
2023-01-17T06:53:29.493Z,963.80
2023-01-17T06:54:29.550Z,963.79
2023-01-17T06:55:29.485Z,963.82
2023-01-17T06:56:29.511Z,963.80
2023-01-17T06:57:29.512Z,963.83
2023-01-17T06:58:30.109Z,963.85
2023-01-17T06:59:29.479Z,963.87
2023-01-17T07:00:40.947Z,963.91
2023-01-17T07:01:30.528Z,963.93
2023-01-17T07:02:29.460Z,963.86
2023-01-17T07:03:29.466Z,963.81
2023-01-17T07:04:29.417Z,963.93
2023-01-17T07:05:29.432Z,963.94
2023-01-17T07:06:29.325Z,963.95
2023-01-17T07:07:29.370Z,963.99
2023-01-17T07:08:29.390Z,963.95
2023-01-17T07:09:29.310Z,963.95
2023-01-17T07:10:29.261Z,963.99
2023-01-17T07:11:29.314Z,963.95
2023-01-17T07:12:29.330Z,963.99
2023-01-17T07:13:29.275Z,964.00
2023-01-17T07:14:29.308Z,963.94
2023-01-17T07:15:29.236Z,964.05
2023-01-17T07:16:29.333Z,964.01
2023-01-17T07:17:29.871Z,963.99
2023-01-17T07:18:29.241Z,964.03
2023-01-17T07:19:29.352Z,964.12
2023-01-17T07:20:29.225Z,964.09
2023-01-17T07:21:29.223Z,964.11
2023-01-17T07:22:29.206Z,964.11
2023-01-17T07:23:29.840Z,964.14
2023-01-17T07:24:29.166Z,964.12
2023-01-17T07:25:29.164Z,964.14
2023-01-17T07:26:29.115Z,964.12
2023-01-17T07:27:29.139Z,964.13
2023-01-17T07:28:29.160Z,964.11
2023-01-17T07:29:29.150Z,964.14
2023-01-17T07:30:29.083Z,964.11
2023-01-17T07:31:29.129Z,964.15
2023-01-17T07:32:29.086Z,964.11
2023-01-17T07:33:29.052Z,964.14
2023-01-17T07:34:29.052Z,964.18
2023-01-17T07:35:29.023Z,964.16
2023-01-17T07:36:29.027Z,964.21
2023-01-17T07:37:29.040Z,964.17
2023-01-17T07:38:28.983Z,964.12
2023-01-17T07:39:28.972Z,964.17
2023-01-17T07:40:28.960Z,964.23
2023-01-17T07:41:28.965Z,964.21
2023-01-17T07:42:28.989Z,964.25
2023-01-17T07:44:02.391Z,964.29
2023-01-17T07:45:01.325Z,964.28
2023-01-17T07:45:28.909Z,964.24
2023-01-17T07:46:28.933Z,964.19
2023-01-17T07:47:28.909Z,964.22
2023-01-17T07:48:28.915Z,964.28
2023-01-17T07:49:28.884Z,964.26
2023-01-17T07:50:28.883Z,964.29
2023-01-17T07:51:28.899Z,964.32
2023-01-17T07:52:28.838Z,964.28
2023-01-17T07:53:28.802Z,964.29
2023-01-17T07:54:28.867Z,964.34
2023-01-17T07:55:28.816Z,964.35
2023-01-17T07:56:28.808Z,964.30
2023-01-17T07:57:28.822Z,964.34
2023-01-17T07:58:28.784Z,964.38
2023-01-17T07:59:28.746Z,964.32
2023-01-17T08:00:28.769Z,964.35
2023-01-17T08:01:28.827Z,964.30
2023-01-17T08:02:28.780Z,964.42
2023-01-17T08:03:28.767Z,964.42
2023-01-17T08:04:28.788Z,964.31
2023-01-17T08:05:28.744Z,964.34
2023-01-17T08:06:28.701Z,964.36
2023-01-17T08:07:28.734Z,964.33
2023-01-17T08:08:28.680Z,964.38
2023-01-17T08:09:28.695Z,964.39
2023-01-17T08:10:28.685Z,964.39
2023-01-17T08:11:28.628Z,964.47
2023-01-17T08:12:28.639Z,964.40
2023-01-17T08:13:29.936Z,964.42
2023-01-17T08:14:29.616Z,964.41
2023-01-17T08:15:28.608Z,964.36
2023-01-17T08:16:28.728Z,964.41
2023-01-17T08:17:29.314Z,964.37
2023-01-17T08:18:29.290Z,964.44
2023-01-17T08:19:28.571Z,964.42
2023-01-17T08:20:28.594Z,964.46
2023-01-17T08:21:28.541Z,964.52
2023-01-17T08:22:28.542Z,964.50
2023-01-17T08:23:28.531Z,964.45
2023-01-17T08:24:28.534Z,964.45
2023-01-17T08:25:28.502Z,964.49
2023-01-17T08:26:28.519Z,964.49
2023-01-17T08:27:28.501Z,964.51
2023-01-17T08:28:28.480Z,964.57
2023-01-17T08:29:28.482Z,964.43
2023-01-17T08:30:28.443Z,964.57
2023-01-17T08:31:28.486Z,964.52
2023-01-17T08:32:28.422Z,964.51
2023-01-17T08:33:28.496Z,964.47
2023-01-17T08:34:28.399Z,964.54
2023-01-17T08:35:28.420Z,964.52
2023-01-17T08:36:28.385Z,964.52
2023-01-17T08:37:28.383Z,964.54
2023-01-17T08:38:28.360Z,964.55
2023-01-17T08:39:28.380Z,964.56
2023-01-17T08:40:28.363Z,964.54
2023-01-17T08:41:28.352Z,964.62
2023-01-17T08:42:28.310Z,964.61
2023-01-17T08:43:28.347Z,964.54
2023-01-17T08:44:28.295Z,964.53
2023-01-17T08:45:28.376Z,964.56
2023-01-17T08:46:28.252Z,964.61
2023-01-17T08:47:28.263Z,964.65
2023-01-17T08:48:29.205Z,964.61
2023-01-17T08:49:28.802Z,964.62
2023-01-17T08:50:28.211Z,964.61
2023-01-17T08:51:28.218Z,964.64
2023-01-17T08:52:28.208Z,964.62
2023-01-17T08:53:28.232Z,964.56
2023-01-17T08:54:28.808Z,964.65
2023-01-17T08:55:28.223Z,964.63
2023-01-17T08:56:28.207Z,964.63
2023-01-17T08:57:28.147Z,964.64
2023-01-17T08:58:30.311Z,964.66
2023-01-17T08:59:28.132Z,964.67
2023-01-17T09:00:28.116Z,964.69
2023-01-17T09:01:28.327Z,964.68
2023-01-17T09:02:28.142Z,964.63
2023-01-17T09:03:28.083Z,964.68
2023-01-17T09:04:28.154Z,964.71
2023-01-17T09:05:28.087Z,964.64
2023-01-17T09:06:28.782Z,964.69
2023-01-17T09:07:28.085Z,964.69
2023-01-17T09:08:28.024Z,964.73
2023-01-17T09:09:28.040Z,964.71
2023-01-17T09:10:28.044Z,964.75
2023-01-17T09:11:28.058Z,964.75
2023-01-17T09:12:28.012Z,964.75
2023-01-17T09:13:28.093Z,964.74
2023-01-17T09:14:27.992Z,964.66
2023-01-17T09:15:27.985Z,964.77
2023-01-17T09:16:28.014Z,964.78
2023-01-17T09:17:27.955Z,964.70
2023-01-17T09:18:27.968Z,964.72
2023-01-17T09:19:27.964Z,964.71
2023-01-17T09:20:27.941Z,964.67
2023-01-17T09:21:27.927Z,964.80
2023-01-17T09:22:27.938Z,964.69
2023-01-17T09:23:27.985Z,964.84
2023-01-17T09:24:27.886Z,964.75
2023-01-17T09:25:27.876Z,964.83
2023-01-17T09:26:27.877Z,964.84
2023-01-17T09:27:27.858Z,964.88
2023-01-17T09:28:27.887Z,964.87
2023-01-17T09:29:27.883Z,964.86
2023-01-17T09:30:27.851Z,964.90
2023-01-17T09:31:27.847Z,964.94
2023-01-17T09:32:27.807Z,964.91
2023-01-17T09:33:27.791Z,964.91
2023-01-17T09:34:27.834Z,964.91
2023-01-17T09:35:27.759Z,964.91
2023-01-17T09:36:27.733Z,964.94
2023-01-17T09:37:27.757Z,964.96
2023-01-17T09:38:27.756Z,964.94
2023-01-17T09:39:27.810Z,964.94
2023-01-17T09:40:27.724Z,964.98
2023-01-17T09:41:27.861Z,965.00
2023-01-17T09:42:27.679Z,964.94
2023-01-17T09:43:28.666Z,964.93
2023-01-17T09:44:27.678Z,964.97
2023-01-17T09:45:27.707Z,964.91
2023-01-17T09:46:27.636Z,965.00
2023-01-17T09:47:27.715Z,965.00
2023-01-17T09:48:27.628Z,964.98
2023-01-17T09:49:27.619Z,964.93
2023-01-17T09:50:27.612Z,965.01
2023-01-17T09:51:27.615Z,964.92
2023-01-17T09:52:27.648Z,964.94
2023-01-17T09:53:27.587Z,964.94
2023-01-17T09:54:27.571Z,964.82
2023-01-17T09:55:27.616Z,964.89
2023-01-17T09:56:27.526Z,964.84
2023-01-17T09:57:27.560Z,964.85
2023-01-17T09:58:27.497Z,964.82
2023-01-17T09:59:33.270Z,964.92
2023-01-17T10:00:28.529Z,964.89
2023-01-17T10:01:27.795Z,964.82
2023-01-17T10:02:27.675Z,964.82
2023-01-17T10:03:27.587Z,964.85
2023-01-17T10:04:27.496Z,964.86
2023-01-17T10:05:27.440Z,964.92
2023-01-17T10:06:27.463Z,964.78
2023-01-17T10:07:27.427Z,964.81
2023-01-17T10:08:27.414Z,964.85
2023-01-17T10:09:27.386Z,964.91
2023-01-17T10:10:27.405Z,964.81
2023-01-17T10:11:27.367Z,964.80
2023-01-17T10:12:27.393Z,964.78
2023-01-17T10:13:27.395Z,964.83
2023-01-17T10:14:27.331Z,964.81
2023-01-17T10:15:27.332Z,964.66
2023-01-17T10:16:27.332Z,964.76
2023-01-17T10:17:27.345Z,964.81
2023-01-17T10:18:30.427Z,964.82
2023-01-17T10:19:28.317Z,964.84
2023-01-17T10:20:27.329Z,964.70
2023-01-17T10:21:27.265Z,964.79
2023-01-17T10:22:27.269Z,964.71
2023-01-17T10:23:27.301Z,964.70
2023-01-17T10:24:27.247Z,964.67
2023-01-17T10:25:27.213Z,964.70
2023-01-17T10:26:27.245Z,964.73
2023-01-17T10:27:28.179Z,964.65
2023-01-17T10:28:27.198Z,964.72
2023-01-17T10:29:27.202Z,964.71
2023-01-17T10:30:27.181Z,964.75
2023-01-17T10:31:27.158Z,964.75
2023-01-17T10:32:27.181Z,964.78
2023-01-17T10:33:27.179Z,964.78
2023-01-17T10:34:27.111Z,964.79
2023-01-17T10:35:27.169Z,964.80
2023-01-17T10:36:27.114Z,964.80
2023-01-17T10:37:27.159Z,964.81
2023-01-17T10:38:27.086Z,964.77
2023-01-17T10:39:27.071Z,964.79
2023-01-17T10:40:27.057Z,964.80
2023-01-17T10:41:27.062Z,964.76
2023-01-17T10:42:27.065Z,964.81
2023-01-17T10:43:27.033Z,964.73
2023-01-17T10:44:27.089Z,964.79
2023-01-17T10:45:27.013Z,964.79
2023-01-17T10:46:27.058Z,964.75
2023-01-17T10:47:26.994Z,964.81
2023-01-17T10:48:26.978Z,964.77
2023-01-17T10:49:26.959Z,964.80
2023-01-17T10:50:26.982Z,964.77
2023-01-17T10:51:26.945Z,964.73
2023-01-17T10:52:26.938Z,964.71
2023-01-17T10:53:26.940Z,964.75
2023-01-17T10:54:26.915Z,964.78
2023-01-17T10:55:26.906Z,964.77
2023-01-17T10:56:26.947Z,964.80
2023-01-17T10:57:26.878Z,964.83
2023-01-17T10:59:00.711Z,964.77
2023-01-17T10:59:26.895Z,964.78
2023-01-17T11:00:26.871Z,964.70
2023-01-17T11:01:26.917Z,964.76
2023-01-17T11:02:27.049Z,964.71
2023-01-17T11:03:26.866Z,964.75
2023-01-17T11:04:26.849Z,964.77
2023-01-17T11:05:26.786Z,964.74
2023-01-17T11:06:26.807Z,964.82
2023-01-17T11:07:26.866Z,964.72
2023-01-17T11:08:26.788Z,964.74
2023-01-17T11:09:26.858Z,964.76
2023-01-17T11:10:26.777Z,964.82
2023-01-17T11:11:26.727Z,964.82
2023-01-17T11:12:26.739Z,964.73
2023-01-17T11:13:26.715Z,964.74
2023-01-17T11:14:26.719Z,964.78
2023-01-17T11:15:26.677Z,964.66
2023-01-17T11:16:27.688Z,964.66
2023-01-17T11:17:27.757Z,964.65
2023-01-17T11:18:26.745Z,964.65
2023-01-17T11:19:26.773Z,964.62
2023-01-17T11:20:26.699Z,964.58
2023-01-17T11:21:26.756Z,964.52
2023-01-17T11:22:26.685Z,964.54
2023-01-17T11:23:26.636Z,964.53
2023-01-17T11:24:26.766Z,964.57
2023-01-17T11:25:26.623Z,964.58
2023-01-17T11:26:26.618Z,964.50
2023-01-17T11:27:26.599Z,964.50
2023-01-17T11:28:26.579Z,964.54
2023-01-17T11:29:26.606Z,964.53
2023-01-17T11:30:26.571Z,964.54
2023-01-17T11:31:26.669Z,964.57
2023-01-17T11:32:26.520Z,964.56
2023-01-17T11:33:27.890Z,964.73
2023-01-17T11:34:26.531Z,964.58
2023-01-17T11:35:26.540Z,964.59
2023-01-17T11:36:26.479Z,964.54
2023-01-17T11:37:26.485Z,964.55
2023-01-17T11:38:26.476Z,964.50
2023-01-17T11:39:26.522Z,964.51
2023-01-17T11:40:26.410Z,964.45
2023-01-17T11:41:26.459Z,964.50
2023-01-17T11:42:26.456Z,964.49
2023-01-17T11:43:26.413Z,964.48
2023-01-17T11:44:26.426Z,964.53
2023-01-17T11:45:26.393Z,964.57
2023-01-17T11:46:26.387Z,964.43
2023-01-17T11:47:26.383Z,964.41
2023-01-17T11:48:26.360Z,964.38
2023-01-17T11:49:26.363Z,964.44
2023-01-17T11:50:26.362Z,964.45
2023-01-17T11:51:26.381Z,964.49
2023-01-17T11:52:26.391Z,964.30
2023-01-17T11:53:26.287Z,964.34
2023-01-17T11:54:26.314Z,964.42
2023-01-17T11:55:26.343Z,964.43
2023-01-17T11:56:26.321Z,964.55
2023-01-17T11:57:26.333Z,964.50
2023-01-17T11:58:26.304Z,964.46
2023-01-17T11:59:26.221Z,964.41
2023-01-17T12:00:26.208Z,964.50
2023-01-17T12:01:26.242Z,964.49
2023-01-17T12:02:26.200Z,964.47
2023-01-17T12:03:26.228Z,964.48
2023-01-17T12:04:26.200Z,964.41
2023-01-17T12:05:26.210Z,964.42
2023-01-17T12:06:26.288Z,964.42
2023-01-17T12:07:26.108Z,964.37
2023-01-17T12:08:26.155Z,964.39
2023-01-17T12:09:26.142Z,964.45
2023-01-17T12:10:26.162Z,964.46
2023-01-17T12:11:26.125Z,964.41
2023-01-17T12:12:26.161Z,964.39
2023-01-17T12:13:26.149Z,964.46
2023-01-17T12:14:26.089Z,964.41
2023-01-17T12:15:26.069Z,964.41
2023-01-17T12:16:26.085Z,964.37
2023-01-17T12:17:26.067Z,964.40
2023-01-17T12:18:26.021Z,964.39
2023-01-17T12:19:26.141Z,964.37
2023-01-17T12:20:26.010Z,964.37
2023-01-17T12:21:26.008Z,964.32
2023-01-17T12:22:26.111Z,964.36
2023-01-17T12:23:26.035Z,964.36
2023-01-17T12:24:25.969Z,964.36
2023-01-17T12:25:26.001Z,964.37
2023-01-17T12:26:25.998Z,964.28
2023-01-17T12:27:25.945Z,964.30
2023-01-17T12:28:26.674Z,964.39